Time;durP1;ratioP1;P1;durP2;ratioP2;P2;SDS_P1;SDS_P2;PMS_P1;PMS_P2;Temp;Humidity;BMP_temperature;BMP_pressure;BME280_temperature;BME280_humidity;BME280_pressure;Samples;Min_cycle;Max_cycle;Signal;HPM_P1;HPM_P2
2022/12/19 09:06:50;;;;;;;79.57;32.38;;;5.80;99.90;;;;;;5107838;27;20327;-63
2022/12/19 09:09:16;;;;;;;97.63;36.58;;;5.80;99.90;;;;;;5108735;28;20024;-63
2022/12/19 09:11:42;;;;;;;83.30;33.38;;;5.90;99.90;;;;;;5107361;28;20015;-62
2022/12/19 09:14:07;;;;;;;93.78;35.72;;;5.90;99.90;;;;;;5107603;28;20012;-62
2022/12/19 09:16:33;;;;;;;88.60;35.22;;;6.10;99.90;;;;;;5108398;28;20106;-62
2022/12/19 09:18:59;;;;;;;67.68;29.10;;;6.20;99.90;;;;;;5106870;28;20593;-63
2022/12/19 09:21:27;;;;;;;73.32;32.03;;;6.20;99.90;;;;;;5107689;28;20095;-63
2022/12/19 09:23:55;;;;;;;75.78;30.58;;;6.30;99.90;;;;;;5107189;28;20047;-63
2022/12/19 09:26:23;;;;;;;70.65;29.70;;;6.30;99.90;;;;;;5105470;28;20478;-64
2022/12/19 09:28:49;;;;;;;86.80;33.67;;;6.40;99.90;;;;;;5108016;28;20012;-62
2022/12/19 09:31:20;;;;;;;69.22;29.77;;;6.40;99.90;;;;;;5105624;28;20028;-62
2022/12/19 09:33:47;;;;;;;73.45;29.13;;;6.50;99.90;;;;;;5106848;28;20119;-62
2022/12/19 09:36:15;;;;;;;72.55;30.05;;;6.50;99.90;;;;;;5106517;28;20039;-63
2022/12/19 09:38:41;;;;;;;73.93;28.73;;;6.60;99.90;;;;;;5106926;28;20107;-62
2022/12/19 09:41:22;;;;;;;59.38;25.85;;;6.60;99.90;;;;;;5106696;28;20430;-62
2022/12/19 09:44:06;;;;;;;63.07;28.47;;;6.60;99.90;;;;;;5106259;28;20028;-62
2022/12/19 09:46:49;;;;;;;64.70;26.33;;;6.60;99.90;;;;;;5105583;28;20117;-61
2022/12/19 09:49:22;;;;;;;58.70;26.55;;;6.60;99.90;;;;;;5105622;28;20020;-62
2022/12/19 09:52:24;;;;;;;67.13;28.25;;;6.60;99.90;;;;;;5105926;28;20099;-62
2022/12/19 09:55:26;;;;;;;56.25;26.45;;;6.60;99.90;;;;;;5106270;28;20023;-61
2022/12/19 09:58:07;;;;;;;56.40;25.48;;;6.60;99.90;;;;;;5105985;28;20078;-62
2022/12/19 10:01:01;;;;;;;63.05;27.15;;;6.70;99.90;;;;;;5106229;28;20091;-62
2022/12/19 10:03:42;;;;;;;80.20;34.75;;;6.70;99.90;;;;;;5104240;28;20036;-62
2022/12/19 10:06:17;;;;;;;70.45;30.88;;;6.80;99.90;;;;;;5105975;28;20054;-62
2022/12/19 10:08:43;;;;;;;72.63;30.70;;;6.80;99.90;;;;;;5106200;28;20126;-62
2022/12/19 10:11:14;;;;;;;74.90;33.38;;;6.80;99.90;;;;;;5106770;28;20023;-62
2022/12/19 10:14:25;;;;;;;75.80;31.05;;;6.90;99.90;;;;;;5105045;28;20482;-62
2022/12/19 10:17:21;;;;;;;67.78;28.50;;;6.90;99.90;;;;;;5100192;28;20016;-62
2022/12/19 10:20:18;;;;;;;66.03;29.33;;;7.00;99.90;;;;;;5092192;28;20024;-62
2022/12/19 10:22:49;;;;;;;73.28;28.55;;;6.90;99.90;;;;;;5092552;28;20055;-62
2022/12/19 10:25:53;;;;;;;58.95;27.92;;;7.00;99.90;;;;;;5093145;28;20032;-62
2022/12/19 10:28:33;;;;;;;59.95;26.05;;;7.00;99.90;;;;;;5092454;28;20529;-62
2022/12/19 10:31:26;;;;;;;60.65;28.35;;;7.00;99.90;;;;;;5091001;28;20105;-63
2022/12/19 10:33:57;;;;;;;64.63;29.05;;;7.00;99.90;;;;;;5092361;28;20481;-63
2022/12/19 10:36:24;;;;;;;51.63;26.40;;;7.10;99.90;;;;;;5090354;28;20400;-63
2022/12/19 10:39:02;;;;;;;59.95;26.33;;;7.10;99.90;;;;;;5092505;28;20090;-62
2022/12/19 10:41:30;;;;;;;55.72;25.90;;;7.10;99.90;;;;;;5092665;28;20016;-63
2022/12/19 10:44:06;;;;;;;49.40;25.70;;;7.10;99.90;;;;;;5092552;28;20097;-63
2022/12/19 10:46:46;;;;;;;58.92;26.13;;;7.10;99.90;;;;;;5092354;28;20536;-63
2022/12/19 10:49:23;;;;;;;51.63;24.25;;;7.20;99.90;;;;;;5092401;28;20185;-63
2022/12/19 10:51:57;;;;;;;48.97;23.88;;;7.20;99.90;;;;;;5092054;28;20043;-62
2022/12/19 10:54:38;;;;;;;55.10;24.30;;;7.20;99.90;;;;;;5091997;28;20392;-62
2022/12/19 10:57:20;;;;;;;54.55;26.05;;;7.30;99.90;;;;;;5091407;28;20028;-62
2022/12/19 11:00:01;;;;;;;60.58;25.67;;;7.30;99.90;;;;;;5091065;28;20537;-61
2022/12/19 11:02:42;;;;;;;59.80;26.98;;;7.30;99.90;;;;;;5092121;28;20097;-62
2022/12/19 11:05:28;;;;;;;55.85;28.50;;;7.40;99.90;;;;;;5092857;28;20040;-62
2022/12/19 11:08:06;;;;;;;58.40;27.90;;;7.40;99.90;;;;;;5091477;28;20091;-62
2022/12/19 11:10:39;;;;;;;55.28;27.70;;;7.50;99.90;;;;;;5090776;28;20019;-60
2022/12/19 11:13:27;;;;;;;58.55;29.20;;;7.50;99.90;;;;;;5091486;28;20059;-60
2022/12/19 11:15:57;;;;;;;63.30;30.42;;;7.60;99.90;;;;;;5092661;28;20012;-61
2022/12/19 11:18:32;;;;;;;55.03;28.10;;;7.50;99.90;;;;;;5090196;28;20024;-61
2022/12/19 11:21:12;;;;;;;57.22;30.00;;;7.60;99.90;;;;;;5091740;28;20100;-62
2022/12/19 11:23:50;;;;;;;51.90;25.40;;;7.60;99.90;;;;;;5091664;28;20022;-61
2022/12/19 11:26:27;;;;;;;53.95;27.70;;;7.60;99.90;;;;;;5091100;28;20369;-61
2022/12/19 11:28:57;;;;;;;51.70;27.63;;;7.60;99.90;;;;;;5089697;28;20549;-60
2022/12/19 11:31:25;;;;;;;59.20;29.30;;;7.60;99.90;;;;;;5089850;28;20104;-61
2022/12/19 11:34:02;;;;;;;59.35;30.88;;;7.60;99.90;;;;;;5092110;28;20016;-61
2022/12/19 11:36:35;;;;;;;50.33;26.02;;;7.60;99.90;;;;;;5092719;28;20115;-61
2022/12/19 11:39:03;;;;;;;47.30;25.30;;;7.60;99.90;;;;;;5089688;28;20388;-61
2022/12/19 11:41:34;;;;;;;45.55;24.23;;;7.70;99.90;;;;;;5091978;28;20017;-62
2022/12/19 11:44:07;;;;;;;47.53;24.13;;;7.70;99.90;;;;;;5091341;28;20039;-62
2022/12/19 11:46:44;;;;;;;42.35;23.17;;;7.70;99.90;;;;;;5090201;28;20040;-62
2022/12/19 11:49:30;;;;;;;47.05;25.27;;;7.70;99.90;;;;;;5091659;28;20061;-62
2022/12/19 11:52:24;;;;;;;45.40;25.90;;;7.80;99.90;;;;;;5089142;28;20531;-62
2022/12/19 11:55:02;;;;;;;57.05;27.95;;;7.80;99.90;;;;;;5090248;28;20067;-62
2022/12/19 11:57:28;;;;;;;45.08;22.48;;;7.80;99.90;;;;;;5091577;28;20031;-61
2022/12/19 11:59:54;;;;;;;38.08;20.75;;;7.80;99.90;;;;;;5090339;28;20032;-61
2022/12/19 12:02:31;;;;;;;32.65;18.75;;;7.90;99.90;;;;;;5090864;28;20020;-61
2022/12/19 12:05:07;;;;;;;40.70;21.77;;;7.90;99.90;;;;;;5089931;28;20079;-61
2022/12/19 12:07:37;;;;;;;34.55;20.08;;;7.90;99.90;;;;;;5090307;28;20028;-62
2022/12/19 12:10:17;;;;;;;30.77;17.10;;;7.90;99.90;;;;;;5089863;28;20044;-62
2022/12/19 12:13:03;;;;;;;32.88;19.08;;;7.90;99.90;;;;;;5090161;28;20426;-62
2022/12/19 12:15:51;;;;;;;34.83;18.15;;;8.00;99.90;;;;;;5090344;28;20094;-62
2022/12/19 12:18:54;;;;;;;28.02;15.98;;;8.00;99.90;;;;;;5090789;28;20027;-62
2022/12/19 12:21:42;;;;;;;24.48;14.43;;;8.00;99.90;;;;;;5089880;28;20085;-63
2022/12/19 12:24:41;;;;;;;25.83;12.93;;;8.10;99.90;;;;;;5090587;28;20073;-63
2022/12/19 12:27:15;;;;;;;27.30;14.95;;;8.10;99.90;;;;;;5090582;28;20034;-62
2022/12/19 12:29:57;;;;;;;24.88;14.88;;;8.20;99.90;;;;;;5089743;28;20073;-62
2022/12/19 12:33:01;;;;;;;29.23;16.45;;;8.20;99.90;;;;;;5081121;28;20024;-61
2022/12/19 12:35:33;;;;;;;29.98;14.60;;;8.30;99.90;;;;;;5072790;28;20119;-62
2022/12/19 12:38:35;;;;;;;24.23;14.38;;;8.30;99.90;;;;;;5070970;28;20037;-63
2022/12/19 12:42:02;;;;;;;21.90;13.45;;;8.30;99.90;;;;;;5068859;28;20025;-62
2022/12/19 12:44:10;;;;;;;25.30;15.50;;;8.40;99.90;;;;;;5069953;28;20384;-62
2022/12/19 12:46:44;;;;;;;26.42;16.15;;;8.50;99.90;;;;;;5070253;28;20033;-61
2022/12/19 12:49:28;;;;;;;31.20;19.77;;;8.50;99.90;;;;;;5069572;28;20024;-62
2022/12/19 12:51:54;;;;;;;29.13;17.95;;;8.50;99.90;;;;;;5069624;28;20024;-62
2022/12/19 12:54:25;;;;;;;27.80;17.52;;;8.50;99.90;;;;;;5069364;28;20036;-62
2022/12/19 12:56:50;;;;;;;31.70;18.42;;;8.50;99.90;;;;;;5070402;28;20016;-62
2022/12/19 12:59:23;;;;;;;24.65;16.20;;;8.50;99.90;;;;;;5089360;28;20081;-61
2022/12/19 13:02:15;;;;;;;25.90;15.10;;;8.60;99.90;;;;;;5088815;28;20035;-61
2022/12/19 13:04:57;;;;;;;25.08;16.10;;;8.60;99.90;;;;;;5088426;28;20369;-60
2022/12/19 13:07:38;;;;;;;;;;;8.60;99.90;;;;;;5090443;28;20053;-62
2022/12/19 13:10:17;;;;;;;28.55;17.20;;;8.60;99.90;;;;;;5088996;28;19903;-62
2022/12/19 13:13:08;;;;;;;27.35;17.63;;;8.60;99.90;;;;;;5089095;28;20016;-62
2022/12/19 13:15:36;;;;;;;25.45;15.48;;;8.60;99.90;;;;;;5090082;28;20024;-61
2022/12/19 13:18:11;;;;;;;25.90;16.58;;;8.70;99.90;;;;;;5090394;28;20079;-61
2022/12/19 13:20:46;;;;;;;21.27;11.43;;;8.70;99.90;;;;;;5090443;28;20480;-62
2022/12/19 13:23:35;;;;;;;14.65;8.77;;;8.70;99.90;;;;;;5088584;28;20087;-61
2022/12/19 13:26:01;;;;;;;17.40;9.70;;;8.70;99.90;;;;;;5089979;28;20036;-61
2022/12/19 13:28:27;;;;;;;14.98;9.43;;;8.80;99.90;;;;;;5089620;28;20061;-62
2022/12/19 13:31:05;;;;;;;16.15;9.55;;;8.80;99.90;;;;;;5088453;28;20099;-61
2022/12/19 13:33:53;;;;;;;17.52;9.30;;;8.80;99.90;;;;;;5089323;28;20138;-62
2022/12/19 13:36:54;;;;;;;14.70;9.18;;;8.80;99.90;;;;;;5089744;28;20031;-62
2022/12/19 13:39:30;;;;;;;14.00;8.90;;;8.90;99.90;;;;;;5090015;28;20028;-61
2022/12/19 13:45:00;;;;;;;12.07;7.50;;;8.70;99.90;;;;;;5089401;28;20057;-62
2022/12/19 13:47:31;;;;;;;12.65;8.23;;;8.70;99.90;;;;;;5090520;28;20046;-62
2022/12/19 13:49:57;;;;;;;;;;;8.70;99.90;;;;;;5088564;28;20035;-61
2022/12/19 13:52:23;;;;;;;16.65;8.63;;;8.70;99.90;;;;;;5091727;28;20368;-61
2022/12/19 13:54:54;;;;;;;16.65;9.20;;;8.70;99.90;;;;;;5093175;28;20020;-62
2022/12/19 13:57:21;;;;;;;;;;;8.70;99.90;;;;;;5092676;28;20044;-62
2022/12/19 13:59:48;;;;;;;15.70;8.60;;;8.70;99.90;;;;;;5093865;28;19904;-62
2022/12/19 14:02:22;;;;;;;15.68;10.02;;;8.70;99.90;;;;;;5093662;28;20019;-62
2022/12/19 14:04:48;;;;;;;17.58;11.10;;;8.60;99.90;;;;;;5092054;28;20396;-62
2022/12/19 14:07:37;;;;;;;17.73;11.82;;;8.60;99.90;;;;;;5092629;28;20016;-62
2022/12/19 14:10:07;;;;;;;31.02;17.95;;;8.60;99.90;;;;;;5093832;28;20103;-62
2022/12/19 14:15:24;;;;;;;;;;;8.50;99.90;;;;;;5094081;28;20599;-62
2022/12/19 14:17:50;;;;;;;21.83;15.82;;;8.50;99.90;;;;;;5091667;28;19939;-62
2022/12/19 14:20:24;;;;;;;25.20;16.27;;;8.50;99.90;;;;;;5093807;28;20017;-62
2022/12/19 14:22:55;;;;;;;26.83;17.40;;;8.50;99.90;;;;;;5092976;28;20036;-61
2022/12/19 14:25:21;;;;;;;25.55;16.20;;;8.50;99.90;;;;;;5092761;28;20506;-62
2022/12/19 14:28:07;;;;;;;25.95;17.27;;;8.50;99.90;;;;;;5093274;28;20020;-62
2022/12/19 14:30:37;;;;;;;18.00;12.55;;;8.50;99.90;;;;;;5093341;28;20511;-62
2022/12/19 14:33:16;;;;;;;20.42;11.77;;;8.50;99.90;;;;;;5091968;28;20024;-62
2022/12/19 14:35:49;;;;;;;17.33;11.60;;;8.40;99.90;;;;;;5092913;28;20020;-62
2022/12/19 14:38:18;;;;;;;21.83;13.57;;;8.40;99.90;;;;;;5092181;28;20035;-62
2022/12/19 14:40:43;;;;;;;20.23;13.90;;;8.30;99.90;;;;;;5092203;28;20020;-62
2022/12/19 14:46:10;;;;;;;21.00;11.27;;;8.30;99.90;;;;;;5092226;28;20086;-62
2022/12/19 14:48:56;;;;;;;17.65;10.35;;;8.30;99.90;;;;;;5093331;28;20020;-62
2022/12/19 14:51:26;;;;;;;13.75;8.43;;;8.30;99.90;;;;;;5092862;28;20077;-62
2022/12/19 14:54:01;;;;;;;15.23;8.10;;;8.30;99.90;;;;;;5091992;28;20447;-62
2022/12/19 14:56:31;;;;;;;16.67;9.48;;;8.20;99.90;;;;;;5092682;28;20085;-62
2022/12/19 14:58:57;;;;;;;18.02;9.65;;;8.10;99.90;;;;;;5092754;28;20024;-62
2022/12/19 15:01:31;;;;;;;17.55;10.43;;;8.10;99.90;;;;;;5090753;28;20031;-61
2022/12/19 15:04:01;;;;;;;18.35;10.10;;;8.00;99.90;;;;;;5092398;28;20023;-61
2022/12/19 15:06:30;;;;;;;19.85;11.00;;;7.90;99.90;;;;;;5092424;28;20048;-61
2022/12/19 15:09:03;;;;;;;22.60;11.38;;;7.90;99.90;;;;;;5090521;28;20028;-61
2022/12/19 15:14:25;;;;;;;25.08;16.40;;;7.80;99.90;;;;;;5091902;28;20106;-61
2022/12/19 15:17:13;;;;;;;25.67;15.77;;;7.80;99.90;;;;;;5091233;28;20050;-61
2022/12/19 15:19:38;;;;;;;26.00;15.60;;;7.70;99.90;;;;;;5092620;28;20547;-61
2022/12/19 15:22:04;;;;;;;32.42;16.65;;;7.70;99.90;;;;;;5091555;28;20107;-63
2022/12/19 15:24:29;;;;;;;28.10;17.23;;;7.60;99.90;;;;;;5092314;28;20024;-61
2022/12/19 15:26:55;;;;;;;29.45;17.88;;;7.60;99.90;;;;;;5091905;28;20438;-62
2022/12/19 15:29:21;;;;;;;29.27;17.50;;;7.60;99.90;;;;;;5092019;28;20016;-61
2022/12/19 15:31:46;;;;;;;26.77;16.27;;;7.60;99.90;;;;;;5090508;28;20046;-61
2022/12/19 15:34:28;;;;;;;26.23;15.23;;;7.60;99.90;;;;;;5092051;28;20028;-61
2022/12/19 15:36:55;;;;;;;29.15;15.50;;;7.60;99.90;;;;;;5090671;28;20019;-61
2022/12/19 15:39:23;;;;;;;25.17;15.95;;;7.60;99.90;;;;;;5092147;28;20027;-61
2022/12/19 15:41:52;;;;;;;23.52;15.20;;;7.60;99.90;;;;;;5091450;28;20078;-61
2022/12/19 15:44:30;;;;;;;28.15;15.68;;;7.60;99.90;;;;;;5089753;28;20032;-62
2022/12/19 15:46:57;;;;;;;27.08;15.60;;;7.60;99.90;;;;;;5091141;28;20032;-60
2022/12/19 15:49:22;;;;;;;34.00;17.23;;;7.60;99.90;;;;;;5091815;28;20016;-61
2022/12/19 15:51:49;;;;;;;29.55;16.33;;;7.60;99.90;;;;;;5089869;28;20081;-61
2022/12/19 15:54:15;;;;;;;32.28;17.30;;;7.60;99.90;;;;;;5091311;28;20099;-61
2022/12/19 15:56:47;;;;;;;31.00;18.25;;;7.60;99.90;;;;;;5090046;28;20034;-60
2022/12/19 15:59:39;;;;;;;31.98;17.02;;;7.60;99.90;;;;;;5091305;28;20028;-62
2022/12/19 16:02:22;;;;;;;28.70;15.98;;;7.60;99.90;;;;;;5091581;28;20024;-61
2022/12/19 16:04:49;;;;;;;23.20;14.27;;;7.60;99.90;;;;;;5088584;28;20033;-60
2022/12/19 16:07:20;;;;;;;22.00;12.00;;;7.60;99.90;;;;;;5091293;28;20028;-61
2022/12/19 16:09:46;;;;;;;21.98;11.88;;;7.60;99.90;;;;;;5090008;28;20592;-61
2022/12/19 16:12:30;;;;;;;21.55;12.25;;;7.60;99.90;;;;;;5090930;28;20032;-61
2022/12/19 16:14:57;;;;;;;20.98;12.05;;;7.60;99.90;;;;;;5070073;28;20100;-62
2022/12/19 16:17:25;;;;;;;21.73;11.27;;;7.60;99.90;;;;;;5070613;28;20027;-63
2022/12/19 16:19:51;;;;;;;19.38;10.25;;;7.60;99.90;;;;;;5072169;28;20740;-62
2022/12/19 16:22:18;;;;;;;21.58;11.27;;;7.60;99.90;;;;;;5071990;28;20451;-63
2022/12/19 16:24:44;;;;;;;22.08;10.77;;;7.60;99.90;;;;;;5069497;28;20025;-62
2022/12/19 16:27:23;;;;;;;20.75;11.57;;;7.60;99.90;;;;;;5071931;28;20028;-62
2022/12/19 16:29:49;;;;;;;19.98;11.55;;;7.70;99.90;;;;;;5071543;28;20017;-62
2022/12/19 16:32:16;;;;;;;16.98;10.00;;;7.60;99.90;;;;;;5070966;28;20052;-61
2022/12/19 16:34:41;;;;;;;20.35;10.30;;;7.70;99.90;;;;;;5071698;28;20035;-62
2022/12/19 16:37:07;;;;;;;19.55;11.50;;;7.70;99.90;;;;;;5071474;28;20025;-61
2022/12/19 16:39:33;;;;;;;20.45;10.98;;;7.70;99.90;;;;;;5070877;28;20484;-62
2022/12/19 16:41:58;;;;;;;20.92;10.73;;;7.70;99.90;;;;;;5071112;28;20025;-61
2022/12/19 16:44:24;;;;;;;31.13;15.10;;;7.70;99.90;;;;;;5071404;28;20461;-61
2022/12/19 16:46:51;;;;;;;24.23;16.38;;;7.70;99.90;;;;;;5071181;28;20036;-62
2022/12/19 16:49:24;;;;;;;27.42;17.17;;;7.70;99.90;;;;;;5071483;28;20021;-63
2022/12/19 16:51:50;;;;;;;27.52;16.50;;;7.70;99.90;;;;;;5071562;28;20107;-64
2022/12/19 16:54:16;;;;;;;27.23;16.23;;;7.70;99.90;;;;;;5071018;28;20021;-63
2022/12/19 16:56:47;;;;;;;27.92;17.08;;;7.70;99.90;;;;;;5071022;28;20100;-63
2022/12/19 16:59:19;;;;;;;22.35;13.85;;;7.70;99.90;;;;;;5071520;28;20027;-62
2022/12/19 17:01:45;;;;;;;20.63;12.38;;;7.80;99.90;;;;;;5069429;28;20089;-62
2022/12/19 17:04:16;;;;;;;20.65;12.70;;;7.70;99.90;;;;;;5071411;28;20028;-62
2022/12/19 17:06:42;;;;;;;20.80;13.38;;;7.70;99.90;;;;;;5071514;28;20804;-63
2022/12/19 17:09:16;;;;;;;33.08;20.58;;;7.70;99.90;;;;;;5090544;28;20036;-62
2022/12/19 17:11:48;;;;;;;46.83;32.17;;;7.60;99.90;;;;;;5089280;28;20012;-62
2022/12/19 17:14:18;;;;;;;31.17;21.83;;;7.60;99.90;;;;;;5088846;28;20028;-62
2022/12/19 17:16:43;;;;;;;23.10;15.00;;;7.50;99.90;;;;;;5090705;28;20028;-62
2022/12/19 17:19:20;;;;;;;20.05;11.60;;;7.50;99.90;;;;;;5089516;28;20036;-62
2022/12/19 17:21:47;;;;;;;19.42;10.90;;;7.50;99.90;;;;;;5090150;28;20506;-62
2022/12/19 17:24:14;;;;;;;15.90;9.93;;;7.50;99.90;;;;;;5090782;28;20383;-63
2022/12/19 17:26:41;;;;;;;18.85;9.80;;;7.40;99.90;;;;;;5091047;28;20104;-62
2022/12/19 17:29:06;;;;;;;15.50;10.05;;;7.40;99.90;;;;;;5093417;28;20012;-62
2022/12/19 17:31:36;;;;;;;20.98;10.43;;;7.50;99.90;;;;;;5093457;28;20550;-62
2022/12/19 17:34:27;;;;;;;19.58;11.07;;;7.50;99.90;;;;;;5093208;28;20431;-63
2022/12/19 17:36:53;;;;;;;18.23;10.80;;;7.50;99.90;;;;;;5088356;28;20080;-62
2022/12/19 17:39:24;;;;;;;15.18;10.05;;;7.40;99.90;;;;;;5094834;28;20060;-64
2022/12/19 17:41:51;;;;;;;19.65;10.88;;;7.30;99.90;;;;;;5093697;28;20024;-62
2022/12/19 17:44:17;;;;;;;17.35;10.93;;;7.30;99.90;;;;;;5094572;28;20020;-62
2022/12/19 17:46:44;;;;;;;20.33;10.57;;;7.30;99.90;;;;;;5094335;28;20032;-61
2022/12/19 17:49:22;;;;;;;18.98;10.95;;;7.30;99.90;;;;;;5094018;28;20016;-64
2022/12/19 17:51:51;;;;;;;30.13;17.73;;;7.40;99.90;;;;;;5094216;28;20024;-64
2022/12/19 17:54:17;;;;;;;18.65;11.05;;;7.40;99.90;;;;;;5094404;28;20581;-63
2022/12/19 17:56:43;;;;;;;16.95;9.15;;;7.40;99.90;;;;;;5093714;28;20099;-62
2022/12/19 17:59:09;;;;;;;18.95;9.18;;;7.40;99.90;;;;;;5094337;28;20108;-64
2022/12/19 18:01:36;;;;;;;14.95;8.90;;;7.50;99.90;;;;;;5094308;28;20422;-64
2022/12/19 18:04:02;;;;;;;16.58;9.80;;;7.50;99.90;;;;;;5093292;28;20088;-63
2022/12/19 18:06:27;;;;;;;16.45;10.27;;;7.60;99.90;;;;;;5093985;28;20044;-63
2022/12/19 18:08:53;;;;;;;14.00;8.82;;;7.60;99.90;;;;;;5077176;28;20119;-63
2022/12/19 18:11:22;;;;;;;15.48;9.43;;;7.60;99.90;;;;;;5105678;28;20024;-63
2022/12/19 18:13:48;;;;;;;17.60;9.68;;;7.70;99.90;;;;;;5073386;28;20029;-62
2022/12/19 18:16:17;;;;;;;14.60;8.48;;;7.70;99.90;;;;;;5072400;28;20027;-62
2022/12/19 18:18:43;;;;;;;16.45;9.30;;;7.70;99.90;;;;;;5073057;28;20024;-62
2022/12/19 18:21:17;;;;;;;17.23;9.80;;;7.70;99.90;;;;;;5073411;28;20027;-61
2022/12/19 18:23:45;;;;;;;14.95;8.63;;;7.60;99.90;;;;;;5071481;28;20020;-62
2022/12/19 18:26:12;;;;;;;12.60;8.38;;;7.70;99.90;;;;;;5073314;28;20047;-62
2022/12/19 18:28:38;;;;;;;13.63;8.48;;;7.70;99.90;;;;;;5073469;28;20029;-63
2022/12/19 18:31:21;;;;;;;18.73;9.82;;;7.70;99.90;;;;;;5072241;28;20860;-63
2022/12/19 18:33:48;;;;;;;14.57;9.50;;;7.70;99.90;;;;;;5072849;28;20024;-63
2022/12/19 18:36:28;;;;;;;13.50;8.43;;;7.60;99.90;;;;;;5073296;28;20088;-63
2022/12/19 18:38:55;;;;;;;15.23;10.18;;;7.60;99.90;;;;;;5072131;28;20016;-63
2022/12/19 18:41:21;;;;;;;16.92;9.82;;;7.60;99.90;;;;;;5073347;28;20107;-62
2022/12/19 18:43:47;;;;;;;15.35;10.70;;;7.60;99.90;;;;;;5072762;28;20020;-62
2022/12/19 18:46:21;;;;;;;19.15;11.32;;;7.70;99.90;;;;;;5072402;28;20493;-62
2022/12/19 18:48:46;;;;;;;17.67;10.30;;;7.70;99.90;;;;;;5071713;28;20028;-61
2022/12/19 18:51:15;;;;;;;18.52;10.93;;;7.70;99.90;;;;;;5073045;28;20392;-63
2022/12/19 18:53:42;;;;;;;19.17;11.82;;;7.80;99.90;;;;;;5071905;28;20017;-62
2022/12/19 18:56:07;;;;;;;19.50;12.05;;;7.80;99.90;;;;;;5073273;28;20095;-62
2022/12/19 18:58:33;;;;;;;24.08;14.95;;;7.90;99.90;;;;;;5073221;28;20020;-61
2022/12/19 19:01:00;;;;;;;22.20;13.00;;;7.90;99.90;;;;;;5072068;28;20020;-61
2022/12/19 19:03:38;;;;;;;17.95;12.10;;;8.00;99.90;;;;;;5071296;28;20496;-61
2022/12/19 19:06:18;;;;;;;23.35;14.20;;;8.00;99.90;;;;;;5071512;28;20040;-61
2022/12/19 19:08:43;;;;;;;21.90;14.18;;;8.10;99.90;;;;;;5072685;28;20021;-60
2022/12/19 19:11:09;;;;;;;19.85;12.05;;;8.10;99.90;;;;;;5072844;28;20381;-61
2022/12/19 19:13:35;;;;;;;22.75;13.65;;;8.10;99.90;;;;;;5071849;28;20051;-61
2022/12/19 19:16:05;;;;;;;19.35;12.82;;;8.20;99.90;;;;;;5072479;28;20035;-60
2022/12/19 19:18:37;;;;;;;23.52;13.98;;;8.20;99.90;;;;;;5072336;28;20031;-61
2022/12/19 19:21:04;;;;;;;21.05;14.27;;;8.20;99.90;;;;;;5070310;28;20465;-61
2022/12/19 19:23:37;;;;;;;15.07;10.82;;;8.20;99.90;;;;;;5072482;28;20047;-61
2022/12/19 19:26:02;;;;;;;17.00;10.77;;;8.30;99.90;;;;;;5070428;28;20032;-61
2022/12/19 19:28:28;;;;;;;18.85;11.55;;;8.30;99.90;;;;;;5104536;28;20019;-61
2022/12/19 19:30:55;;;;;;;18.85;11.27;;;8.30;99.90;;;;;;5071878;28;20042;-61
2022/12/19 19:33:34;;;;;;;17.40;10.30;;;8.40;99.90;;;;;;5072120;28;20025;-61
2022/12/19 19:36:06;;;;;;;17.52;10.98;;;8.40;99.90;;;;;;5071241;28;20358;-61
2022/12/19 19:38:32;;;;;;;16.98;11.85;;;8.50;99.90;;;;;;5072118;28;20060;-62
2022/12/19 19:40:57;;;;;;;15.93;10.57;;;8.50;99.90;;;;;;5071401;28;20049;-62
2022/12/19 19:43:23;;;;;;;17.45;11.38;;;8.50;99.90;;;;;;5071461;28;20105;-62
2022/12/19 19:45:49;;;;;;;12.82;9.63;;;8.50;99.90;;;;;;5104190;28;20036;-62
2022/12/19 19:48:15;;;;;;;15.60;8.30;;;8.50;99.90;;;;;;5069926;28;20013;-63
2022/12/19 19:50:41;;;;;;;15.23;10.07;;;8.50;99.90;;;;;;5070751;28;20542;-62
2022/12/19 19:53:06;;;;;;;12.85;7.75;;;8.50;99.90;;;;;;5071353;28;20125;-62
2022/12/19 19:55:32;;;;;;;11.80;7.93;;;8.50;99.90;;;;;;5071209;28;20025;-63
2022/12/19 19:57:58;;;;;;;11.40;8.15;;;8.50;99.90;;;;;;5071504;28;20109;-63
2022/12/19 20:00:23;;;;;;;11.55;7.03;;;8.50;99.90;;;;;;5071623;28;20039;-62
2022/12/19 20:02:49;;;;;;;12.98;8.02;;;8.50;99.90;;;;;;5070701;28;20368;-63
2022/12/19 20:05:16;;;;;;;17.45;8.13;;;8.50;99.90;;;;;;5071662;28;20045;-62
2022/12/19 20:07:41;;;;;;;12.82;7.97;;;8.60;99.90;;;;;;5071200;28;20028;-62
2022/12/19 20:10:08;;;;;;;10.85;6.72;;;8.70;99.90;;;;;;5070407;28;20020;-63
2022/12/19 20:12:34;;;;;;;10.27;7.07;;;8.70;99.90;;;;;;5070139;28;20032;-63
2022/12/19 20:15:00;;;;;;;11.48;7.38;;;8.70;99.90;;;;;;5071384;28;20024;-63
2022/12/19 20:17:26;;;;;;;12.35;7.72;;;8.70;99.90;;;;;;5071070;28;20063;-62
2022/12/19 20:19:51;;;;;;;12.68;7.20;;;8.60;99.90;;;;;;5071134;28;20028;-63
2022/12/19 20:22:17;;;;;;;11.88;7.05;;;8.50;99.90;;;;;;5071287;28;20074;-62
2022/12/19 20:24:43;;;;;;;12.45;7.72;;;8.50;99.90;;;;;;5069503;28;20461;-62
2022/12/19 20:27:09;;;;;;;12.27;7.28;;;8.40;99.90;;;;;;5071329;28;20039;-62
2022/12/19 20:29:35;;;;;;;10.90;7.28;;;8.40;99.90;;;;;;5071447;28;20017;-62
2022/12/19 20:32:01;;;;;;;10.80;6.60;;;8.40;99.90;;;;;;5070354;28;20117;-62
2022/12/19 20:34:27;;;;;;;11.95;8.13;;;8.30;99.90;;;;;;5070910;28;20096;-62
2022/12/19 20:36:53;;;;;;;11.27;7.50;;;8.30;99.90;;;;;;5070988;28;20035;-62
2022/12/19 20:39:20;;;;;;;11.70;7.80;;;8.30;99.90;;;;;;5070502;28;20052;-63
2022/12/19 20:41:50;;;;;;;14.07;8.00;;;8.20;99.90;;;;;;5070661;28;20021;-62
2022/12/19 20:44:17;;;;;;;13.85;8.30;;;8.30;99.90;;;;;;5080396;28;20024;-62
2022/12/19 20:46:43;;;;;;;14.52;7.70;;;8.30;99.90;;;;;;5090156;28;20063;-62
2022/12/19 20:49:09;;;;;;;11.00;7.30;;;8.40;99.90;;;;;;5090964;28;20027;-62
2022/12/19 20:51:36;;;;;;;11.23;7.32;;;8.40;99.90;;;;;;5090639;28;20425;-62
2022/12/19 20:54:03;;;;;;;13.45;8.57;;;8.50;99.90;;;;;;5089276;28;20495;-62
2022/12/19 20:56:29;;;;;;;12.70;7.05;;;8.50;99.90;;;;;;5091206;28;20020;-62
2022/12/19 20:58:55;;;;;;;12.98;8.30;;;8.50;99.90;;;;;;5089980;28;20035;-61
2022/12/19 21:01:23;;;;;;;10.65;7.50;;;8.50;99.90;;;;;;5091155;28;20020;-61
2022/12/19 21:03:49;;;;;;;13.63;8.05;;;8.50;99.90;;;;;;5090612;28;20059;-61
2022/12/19 21:06:17;;;;;;;11.10;7.25;;;8.50;99.90;;;;;;5089715;28;20079;-63
2022/12/19 21:08:43;;;;;;;12.00;8.32;;;8.40;99.90;;;;;;5086525;28;20024;-63
2022/12/19 21:11:10;;;;;;;13.45;7.72;;;8.40;99.90;;;;;;5089610;28;20046;-62
2022/12/19 21:13:37;;;;;;;10.38;6.60;;;8.40;99.90;;;;;;5089453;28;20024;-61
2022/12/19 21:16:07;;;;;;;11.25;7.00;;;8.40;99.90;;;;;;5090365;28;20031;-62
2022/12/19 21:18:33;;;;;;;14.13;7.28;;;8.30;99.90;;;;;;5089831;28;20517;-62
2022/12/19 21:20:58;;;;;;;9.68;6.90;;;8.30;99.90;;;;;;5088515;28;20031;-61
2022/12/19 21:23:24;;;;;;;9.10;5.80;;;8.30;99.90;;;;;;5089632;28;20441;-62
2022/12/19 21:25:50;;;;;;;11.88;7.50;;;8.30;99.90;;;;;;5090247;28;20056;-62
2022/12/19 21:28:16;;;;;;;9.13;6.30;;;8.30;99.90;;;;;;5090655;28;20028;-62
2022/12/19 21:30:42;;;;;;;11.10;7.53;;;8.30;99.90;;;;;;5090790;28;20368;-62
2022/12/19 21:33:08;;;;;;;12.10;6.60;;;8.30;99.90;;;;;;5090734;28;20066;-62
2022/12/19 21:35:34;;;;;;;10.95;6.50;;;8.30;99.90;;;;;;5090605;28;20020;-62
2022/12/19 21:38:01;;;;;;;9.45;6.57;;;8.30;99.90;;;;;;5090608;28;20017;-62
2022/12/19 21:40:26;;;;;;;9.63;6.05;;;8.30;99.90;;;;;;5091105;28;20032;-61
2022/12/19 21:42:52;;;;;;;11.35;6.47;;;8.30;99.90;;;;;;5090463;28;20009;-62
2022/12/19 21:45:17;;;;;;;12.15;7.45;;;8.30;99.90;;;;;;5090984;28;20039;-62
2022/12/19 21:47:43;;;;;;;11.73;7.18;;;8.30;99.90;;;;;;5089862;28;20482;-62
2022/12/19 21:50:12;;;;;;;12.45;7.13;;;8.20;99.90;;;;;;5090796;28;20024;-62
2022/12/19 21:52:39;;;;;;;14.82;6.75;;;8.30;99.90;;;;;;5090562;28;20016;-62
2022/12/19 21:55:06;;;;;;;12.68;8.63;;;8.30;99.90;;;;;;5071581;28;20074;-62
2022/12/19 21:57:36;;;;;;;11.60;7.70;;;8.20;99.90;;;;;;5090936;28;20032;-62
2022/12/19 22:00:03;;;;;;;13.15;8.02;;;8.20;99.90;;;;;;5090389;28;20032;-61
2022/12/19 22:02:30;;;;;;;9.73;6.95;;;8.20;99.90;;;;;;5088562;28;20103;-61
2022/12/19 22:04:55;;;;;;;13.20;8.30;;;8.20;99.90;;;;;;5090273;28;20048;-61
2022/12/19 22:07:21;;;;;;;15.15;8.65;;;8.20;99.90;;;;;;5089037;28;20077;-62
2022/12/19 22:09:46;;;;;;;19.45;11.65;;;8.20;99.90;;;;;;5069324;28;20057;-62
2022/12/19 22:12:12;;;;;;;13.50;9.40;;;8.20;99.90;;;;;;5070523;28;20375;-62
2022/12/19 22:14:38;;;;;;;11.38;7.38;;;8.20;99.90;;;;;;5073958;28;20060;-63
2022/12/19 22:17:04;;;;;;;13.60;7.55;;;8.20;99.90;;;;;;5073372;28;20461;-64
2022/12/19 22:19:30;;;;;;;13.63;7.90;;;8.30;99.90;;;;;;5072771;28;20032;-63
2022/12/19 22:21:55;;;;;;;13.85;8.65;;;8.40;99.90;;;;;;5073867;28;20020;-62